createdAt,value
2019-05-09T00:01:26.570Z,12.13
2019-05-09T00:03:55.971Z,12.67
2019-05-09T00:06:25.450Z,11.73
2019-05-09T00:08:54.775Z,11.67
2019-05-09T00:11:24.697Z,11.73
2019-05-09T00:13:54.247Z,11.60
2019-05-09T00:16:23.768Z,12.10
2019-05-09T00:18:54.249Z,11.77
2019-05-09T00:21:29.366Z,12.00
2019-05-09T00:23:58.920Z,11.63
2019-05-09T00:26:28.345Z,11.80
2019-05-09T00:29:03.775Z,12.23
2019-05-09T00:31:58.270Z,12.47
2019-05-09T00:34:49.488Z,12.10
2019-05-09T00:37:20.608Z,12.60
2019-05-09T00:39:50.090Z,12.07
2019-05-09T00:42:19.431Z,12.13
2019-05-09T00:44:50.462Z,13.03
2019-05-09T00:47:26.397Z,11.87
2019-05-09T00:49:55.791Z,12.10
2019-05-09T00:52:25.142Z,12.00
2019-05-09T00:54:54.552Z,11.30
2019-05-09T00:57:36.365Z,11.67
2019-05-09T01:00:14.290Z,11.60
2019-05-09T01:02:43.539Z,11.80
2019-05-09T01:05:13.827Z,12.07
2019-05-09T01:07:43.270Z,10.83
2019-05-09T01:10:13.411Z,10.97
2019-05-09T01:12:43.512Z,11.43
2019-05-09T01:15:13.776Z,10.90
2019-05-09T01:17:44.160Z,10.27
2019-05-09T01:20:14.838Z,10.77
2019-05-09T01:22:44.439Z,10.80
2019-05-09T01:25:14.408Z,11.47
2019-05-09T01:27:43.953Z,11.23
2019-05-09T01:30:13.827Z,10.37
2019-05-09T01:33:17.487Z,11.27
2019-05-09T01:35:46.890Z,10.63
2019-05-09T01:38:16.291Z,11.17
2019-05-09T01:40:45.783Z,10.87
2019-05-09T01:43:15.331Z,10.97
2019-05-09T01:45:47.016Z,10.47
2019-05-09T01:48:16.321Z,10.53
2019-05-09T01:50:45.741Z,10.83
2019-05-09T01:53:18.270Z,10.33
2019-05-09T01:56:00.013Z,10.43
2019-05-09T01:58:34.479Z,10.37
2019-05-09T02:01:06.299Z,11.20
2019-05-09T02:03:35.728Z,10.50
2019-05-09T02:06:05.634Z,11.00
2019-05-09T02:08:34.883Z,11.03
2019-05-09T02:11:04.627Z,11.10
2019-05-09T02:13:34.143Z,10.53
2019-05-09T02:16:17.070Z,10.60
2019-05-09T02:18:58.375Z,10.63
2019-05-09T02:21:27.835Z,11.30
2019-05-09T02:23:57.279Z,10.60
2019-05-09T02:26:26.919Z,10.63
2019-05-09T02:28:56.470Z,10.63
2019-05-09T02:31:25.877Z,10.87
2019-05-09T02:33:55.252Z,11.03
2019-05-09T02:36:24.780Z,10.37
2019-05-09T02:38:54.016Z,10.27
2019-05-09T02:41:23.523Z,11.53
2019-05-09T02:43:53.055Z,10.70
2019-05-09T02:46:29.571Z,11.00
2019-05-09T02:48:59.550Z,10.90
2019-05-09T02:51:29.418Z,9.97
2019-05-09T02:53:59.197Z,10.63
2019-05-09T02:56:29.670Z,10.37
2019-05-09T02:59:18.927Z,10.20
2019-05-09T03:02:09.221Z,10.20
2019-05-09T03:04:39.087Z,10.33
2019-05-09T03:07:09.679Z,10.23
2019-05-09T03:09:39.349Z,10.27
2019-05-09T03:12:22.692Z,9.97
2019-05-09T03:14:39.797Z,10.40
2019-05-09T03:17:09.277Z,10.37
2019-05-09T03:19:38.879Z,9.53
2019-05-09T03:22:14.128Z,10.23
2019-05-09T03:24:43.512Z,10.70
2019-05-09T03:27:20.026Z,10.33
2019-05-09T03:29:53.038Z,9.67
2019-05-09T03:32:22.444Z,10.07
2019-05-09T03:34:51.873Z,9.93
2019-05-09T03:37:21.193Z,9.70
2019-05-09T03:39:50.701Z,9.27
2019-05-09T03:42:23.054Z,9.53
2019-05-09T03:44:51.078Z,9.30
2019-05-09T03:47:39.426Z,9.53
2019-05-09T03:50:17.828Z,9.00
2019-05-09T03:52:47.899Z,9.03
2019-05-09T03:55:21.375Z,8.87
2019-05-09T03:57:59.812Z,9.43
2019-05-09T04:00:29.238Z,8.23
2019-05-09T04:02:58.475Z,8.77
2019-05-09T04:05:27.912Z,9.23
2019-05-09T04:08:18.201Z,8.87
2019-05-09T04:10:50.352Z,8.87
2019-05-09T04:13:21.947Z,8.97
2019-05-09T04:15:51.158Z,8.30
2019-05-09T04:18:20.530Z,8.83
2019-05-09T04:20:49.885Z,8.60
2019-05-09T04:23:19.352Z,8.30
2019-05-09T04:25:58.385Z,8.50
2019-05-09T04:28:27.888Z,8.43
2019-05-09T04:30:58.101Z,8.53
2019-05-09T04:33:28.024Z,8.50
2019-05-09T04:35:57.906Z,8.77
2019-05-09T04:38:27.942Z,9.00
2019-05-09T04:40:58.365Z,8.90
2019-05-09T04:43:35.617Z,9.70
2019-05-09T04:46:00.874Z,9.07
2019-05-09T04:48:37.604Z,9.50
2019-05-09T04:51:07.998Z,8.07
2019-05-09T04:53:39.765Z,8.93
2019-05-09T04:56:17.834Z,8.50
2019-05-09T04:58:48.206Z,8.47
2019-05-09T05:01:33.447Z,8.93
2019-05-09T05:04:02.856Z,8.97
2019-05-09T05:06:32.214Z,9.03
2019-05-09T05:09:01.616Z,9.17
2019-05-09T05:11:30.998Z,9.00
2019-05-09T05:14:00.289Z,9.30
2019-05-09T05:16:29.697Z,9.13
2019-05-09T05:18:59.042Z,9.37
2019-05-09T05:21:28.630Z,10.43
2019-05-09T05:24:12.912Z,9.77
2019-05-09T05:26:42.231Z,9.53
2019-05-09T05:29:11.817Z,9.47
2019-05-09T05:31:41.185Z,9.60
2019-05-09T05:34:15.337Z,8.87
2019-05-09T05:36:44.969Z,9.07
2019-05-09T05:39:14.443Z,9.00
2019-05-09T05:41:48.256Z,9.67
2019-05-09T05:44:17.800Z,9.80
2019-05-09T05:47:09.362Z,9.33
2019-05-09T05:49:38.775Z,10.30
2019-05-09T05:52:08.375Z,9.33
2019-05-09T05:54:37.994Z,9.47
2019-05-09T05:57:08.391Z,10.10
2019-05-09T05:59:40.724Z,9.37
2019-05-09T06:02:09.155Z,9.87
2019-05-09T06:04:38.691Z,9.90
2019-05-09T06:07:08.291Z,10.10
2019-05-09T06:09:38.060Z,10.57
2019-05-09T06:12:08.276Z,10.27
2019-05-09T06:14:38.097Z,9.97
2019-05-09T06:17:08.193Z,10.87
2019-05-09T06:19:38.255Z,10.17
2019-05-09T06:22:08.426Z,9.80
2019-05-09T06:24:38.868Z,10.10
2019-05-09T06:27:10.485Z,9.90
2019-05-09T06:29:39.503Z,11.00
2019-05-09T06:32:08.980Z,10.80
2019-05-09T06:34:41.866Z,11.10
2019-05-09T06:37:09.503Z,11.67
2019-05-09T06:39:39.197Z,12.33
2019-05-09T06:42:09.373Z,10.97
2019-05-09T06:44:47.954Z,12.67
2019-05-09T06:47:24.921Z,11.83
2019-05-09T06:49:57.443Z,10.40
2019-05-09T06:52:28.199Z,11.83
2019-05-09T06:54:58.372Z,11.47
2019-05-09T06:57:28.302Z,11.00
2019-05-09T06:59:58.208Z,11.07
2019-05-09T07:02:50.098Z,10.67
2019-05-09T07:05:29.226Z,10.40
2019-05-09T07:08:23.344Z,10.20
2019-05-09T07:10:52.831Z,10.43
2019-05-09T07:13:22.231Z,10.77
2019-05-09T07:15:51.600Z,9.53
2019-05-09T07:18:21.140Z,10.87
2019-05-09T07:20:50.545Z,11.40
2019-05-09T07:23:21.059Z,10.13
2019-05-09T07:26:17.395Z,9.30
2019-05-09T07:28:48.549Z,11.60
2019-05-09T07:31:37.712Z,13.50
2019-05-09T07:34:10.535Z,13.20
2019-05-09T07:36:40.052Z,14.53
2019-05-09T07:39:09.445Z,14.33
2019-05-09T07:41:38.930Z,13.90
2019-05-09T07:44:08.299Z,13.03
2019-05-09T07:46:49.312Z,13.93
2019-05-09T07:49:18.780Z,14.27
2019-05-09T07:51:48.163Z,13.13
2019-05-09T07:54:24.752Z,14.67
2019-05-09T07:56:48.677Z,13.13
2019-05-09T07:59:18.250Z,13.43
2019-05-09T08:01:48.750Z,12.93
2019-05-09T08:04:18.454Z,13.83
2019-05-09T08:06:48.611Z,13.90
2019-05-09T08:09:18.765Z,13.70
2019-05-09T08:11:48.402Z,14.00
2019-05-09T08:14:17.940Z,13.27
2019-05-09T08:16:50.338Z,14.40
2019-05-09T08:19:19.773Z,13.07
2019-05-09T08:21:49.163Z,13.37
2019-05-09T08:24:18.487Z,13.97
2019-05-09T08:26:47.951Z,13.93
2019-05-09T08:29:19.842Z,13.73
2019-05-09T08:31:48.635Z,13.63
2019-05-09T08:34:18.739Z,12.53
2019-05-09T08:36:48.251Z,14.40
2019-05-09T08:39:18.359Z,13.90
2019-05-09T08:41:48.724Z,13.97
2019-05-09T08:44:18.665Z,14.07
2019-05-09T08:46:48.363Z,13.97
2019-05-09T08:49:19.777Z,13.73
2019-05-09T08:52:10.224Z,13.80
2019-05-09T08:54:40.948Z,12.87
2019-05-09T08:57:10.574Z,13.10
2019-05-09T08:59:39.957Z,13.93
2019-05-09T09:02:15.229Z,14.03
2019-05-09T09:04:40.490Z,13.97
2019-05-09T09:07:09.979Z,13.80
2019-05-09T09:09:39.563Z,14.00
2019-05-09T09:12:25.216Z,14.13
2019-05-09T09:14:40.441Z,14.77
2019-05-09T09:17:09.908Z,13.90
2019-05-09T09:19:39.421Z,14.37
2019-05-09T09:22:09.141Z,14.37
2019-05-09T09:24:38.907Z,14.37
2019-05-09T09:27:08.373Z,14.63
2019-05-09T09:29:38.203Z,15.20
2019-05-09T09:32:08.449Z,15.50
2019-05-09T09:34:38.154Z,16.33
2019-05-09T09:37:11.406Z,15.80
2019-05-09T09:39:44.625Z,16.50
2019-05-09T09:42:11.672Z,16.60
2019-05-09T09:44:41.123Z,17.50
2019-05-09T09:47:10.550Z,16.50
2019-05-09T09:49:39.888Z,17.17
2019-05-09T09:52:09.375Z,16.97
2019-05-09T09:54:38.893Z,16.97
2019-05-09T09:57:09.694Z,15.57
2019-05-09T09:59:58.530Z,14.10
2019-05-09T10:02:31.658Z,12.50
2019-05-09T10:05:01.158Z,11.27
2019-05-09T10:07:30.529Z,11.13
2019-05-09T10:10:00.022Z,12.30
2019-05-09T10:12:29.439Z,12.37
2019-05-09T10:15:05.117Z,13.30
2019-05-09T10:17:42.307Z,13.93
2019-05-09T10:20:29.272Z,10.57
2019-05-09T10:23:10.135Z,7.10
2019-05-09T10:25:29.767Z,5.53
2019-05-09T10:27:59.167Z,4.83
2019-05-09T10:30:33.663Z,4.60
2019-05-09T10:33:03.090Z,4.50
2019-05-09T10:35:32.449Z,4.30
2019-05-09T10:38:01.751Z,4.40
2019-05-09T10:40:31.180Z,4.80
2019-05-09T10:43:13.970Z,4.77
2019-05-09T10:46:16.358Z,5.30
2019-05-09T10:48:52.338Z,5.43
2019-05-09T10:51:21.647Z,5.13
2019-05-09T10:53:51.026Z,5.10
2019-05-09T10:56:20.414Z,5.53
2019-05-09T10:58:49.727Z,5.50
2019-05-09T11:01:19.106Z,5.67
2019-05-09T11:03:48.670Z,5.47
2019-05-09T11:06:18.671Z,5.93
2019-05-09T11:08:48.333Z,5.37
2019-05-09T11:11:18.432Z,5.60
2019-05-09T11:13:48.513Z,5.60
2019-05-09T11:16:18.542Z,5.80
2019-05-09T11:18:48.564Z,6.70
2019-05-09T11:21:19.320Z,6.80
2019-05-09T11:23:49.216Z,5.87
2019-05-09T11:26:18.659Z,5.67
2019-05-09T11:28:48.140Z,6.00
2019-05-09T11:31:18.456Z,6.97
2019-05-09T11:33:48.550Z,6.17
2019-05-09T11:36:21.175Z,6.40
2019-05-09T11:38:49.848Z,5.30
2019-05-09T11:41:19.769Z,5.07
2019-05-09T11:43:49.328Z,5.00
2019-05-09T11:46:18.775Z,4.93
2019-05-09T11:48:48.180Z,4.87
2019-05-09T11:51:22.108Z,4.80
2019-05-09T11:53:48.963Z,5.83
2019-05-09T11:56:18.424Z,5.53
2019-05-09T11:58:48.266Z,5.67
2019-05-09T12:01:18.929Z,5.07
2019-05-09T12:03:52.126Z,4.73
2019-05-09T12:06:20.504Z,3.90
2019-05-09T12:08:50.963Z,4.07
2019-05-09T12:11:20.459Z,3.87
2019-05-09T12:13:49.667Z,3.80
2019-05-09T12:16:19.076Z,3.87
2019-05-09T12:18:49.143Z,4.50
2019-05-09T12:21:19.456Z,4.47
2019-05-09T12:23:49.870Z,4.07
2019-05-09T12:26:19.422Z,4.23
2019-05-09T12:28:48.913Z,4.10
2019-05-09T12:31:18.543Z,3.73
2019-05-09T12:33:48.593Z,4.17
2019-05-09T12:36:19.389Z,3.90
2019-05-09T12:38:49.686Z,4.00
2019-05-09T12:41:19.766Z,4.30
2019-05-09T12:43:49.165Z,4.40
2019-05-09T12:46:18.573Z,4.40
2019-05-09T12:48:48.288Z,4.50
2019-05-09T12:51:18.406Z,4.90
2019-05-09T12:53:48.689Z,4.73
2019-05-09T12:56:18.868Z,4.90
2019-05-09T12:58:48.401Z,4.33
2019-05-09T13:01:18.755Z,4.97
2019-05-09T13:03:48.711Z,4.70
2019-05-09T13:06:20.091Z,4.87
2019-05-09T13:08:49.426Z,4.97
2019-05-09T13:11:20.217Z,5.00
2019-05-09T13:13:49.607Z,4.60
2019-05-09T13:16:47.460Z,4.93
2019-05-09T13:19:09.255Z,7.53
2019-05-09T13:21:39.163Z,9.50
2019-05-09T13:24:08.752Z,6.53
2019-05-09T13:26:38.807Z,5.80
2019-05-09T13:29:08.457Z,5.13
2019-05-09T13:31:39.479Z,5.13
2019-05-09T13:34:08.845Z,4.77
2019-05-09T13:36:38.325Z,4.83
2019-05-09T13:39:10.456Z,5.30
2019-05-09T13:41:40.497Z,5.20
2019-05-09T13:44:13.535Z,5.03
2019-05-09T13:46:40.895Z,4.63
2019-05-09T13:49:14.847Z,5.03
2019-05-09T13:51:48.294Z,5.23
2019-05-09T13:54:12.492Z,4.87
2019-05-09T13:56:42.056Z,4.90
2019-05-09T13:59:11.424Z,5.50
2019-05-09T14:01:40.865Z,5.00
2019-05-09T14:04:10.151Z,5.60
2019-05-09T14:06:39.537Z,5.57
2019-05-09T14:09:10.891Z,6.10
2019-05-09T14:11:40.258Z,6.73
2019-05-09T14:14:09.809Z,6.43
2019-05-09T14:16:39.311Z,6.27
2019-05-09T14:19:29.746Z,7.77
2019-05-09T14:21:40.042Z,8.13
2019-05-09T14:24:15.168Z,7.10
2019-05-09T14:26:40.510Z,6.30
2019-05-09T14:29:12.923Z,6.93
2019-05-09T14:31:41.103Z,7.50
2019-05-09T14:34:11.983Z,6.13
2019-05-09T14:36:45.340Z,6.53
2019-05-09T14:39:12.398Z,5.73
2019-05-09T14:41:42.067Z,6.83
2019-05-09T14:44:11.463Z,15.97
2019-05-09T14:46:40.915Z,14.60
2019-05-09T14:49:10.469Z,9.67
2019-05-09T14:51:39.923Z,10.10
2019-05-09T14:54:09.468Z,8.60
2019-05-09T14:56:42.001Z,8.60
2019-05-09T14:59:10.080Z,8.10
2019-05-09T15:01:43.673Z,6.67
2019-05-09T15:04:11.379Z,6.50
2019-05-09T15:06:40.669Z,6.20
2019-05-09T15:09:10.092Z,7.90
2019-05-09T15:11:39.936Z,7.23
2019-05-09T15:14:09.380Z,9.23
2019-05-09T15:16:39.324Z,18.00
2019-05-09T15:19:08.914Z,16.40
2019-05-09T15:21:38.580Z,15.70
2019-05-09T15:24:09.148Z,14.00
2019-05-09T15:26:39.235Z,12.80
2019-05-09T15:29:08.658Z,10.80
2019-05-09T15:31:39.116Z,10.00
2019-05-09T15:34:10.440Z,9.63
2019-05-09T15:36:40.103Z,9.40
2019-05-09T15:39:09.436Z,8.33
2019-05-09T15:41:38.821Z,9.77
2019-05-09T15:44:08.578Z,8.90
2019-05-09T15:47:01.858Z,10.53
2019-05-09T15:49:31.261Z,9.27
2019-05-09T15:52:00.615Z,9.60
2019-05-09T15:54:29.951Z,9.50
2019-05-09T15:56:59.336Z,9.47
2019-05-09T15:59:28.726Z,10.47
2019-05-09T16:01:58.493Z,11.37
2019-05-09T16:04:28.305Z,16.03
2019-05-09T16:06:57.861Z,18.70
2019-05-09T16:09:28.568Z,17.97
2019-05-09T16:11:58.182Z,19.33
2019-05-09T16:14:27.829Z,20.80
2019-05-09T16:16:57.287Z,20.33
2019-05-09T16:19:27.059Z,20.53
2019-05-09T16:21:56.464Z,23.77
2019-05-09T16:24:28.030Z,21.10
2019-05-09T16:26:57.925Z,20.00
2019-05-09T16:29:28.506Z,15.80
2019-05-09T16:31:58.681Z,16.10
2019-05-09T16:34:28.418Z,15.40
2019-05-09T16:36:58.447Z,12.53
2019-05-09T16:39:29.143Z,11.73
2019-05-09T16:41:59.243Z,10.20
2019-05-09T16:44:28.850Z,9.67
2019-05-09T16:46:58.243Z,10.37
2019-05-09T16:49:29.350Z,11.77
2019-05-09T16:51:58.678Z,12.63
2019-05-09T16:54:32.184Z,12.10
2019-05-09T16:57:01.662Z,12.80
2019-05-09T16:59:31.160Z,12.53
2019-05-09T17:02:00.525Z,12.83
2019-05-09T17:04:31.482Z,13.63
2019-05-09T17:07:00.781Z,13.40
2019-05-09T17:09:30.156Z,12.97
2019-05-09T17:11:59.639Z,12.00
2019-05-09T17:14:28.941Z,11.30
2019-05-09T17:17:00.048Z,11.43
2019-05-09T17:19:29.357Z,12.20
2019-05-09T17:22:17.726Z,15.07
2019-05-09T17:24:49.122Z,14.30
2019-05-09T17:27:19.024Z,15.63
2019-05-09T17:29:48.702Z,14.93
2019-05-09T17:32:18.417Z,14.63
2019-05-09T17:34:47.922Z,13.87
2019-05-09T17:37:17.880Z,14.00
2019-05-09T17:39:47.350Z,13.53
2019-05-09T17:42:18.309Z,12.63
2019-05-09T17:44:48.752Z,11.40
2019-05-09T17:47:18.424Z,13.20
2019-05-09T17:49:48.215Z,13.40
2019-05-09T17:52:18.381Z,12.13
2019-05-09T17:54:48.519Z,12.20
2019-05-09T17:57:18.792Z,18.53
2019-05-09T17:59:48.967Z,16.30
2019-05-09T18:02:18.626Z,17.77
2019-05-09T18:04:48.245Z,18.43
2019-05-09T18:07:18.167Z,18.00
2019-05-09T18:09:48.325Z,20.27
2019-05-09T18:12:19.004Z,20.97
2019-05-09T18:14:48.691Z,27.60
2019-05-09T18:17:18.332Z,28.13
2019-05-09T18:19:47.854Z,30.53
2019-05-09T18:22:18.627Z,30.37
2019-05-09T18:24:48.406Z,30.63
2019-05-09T18:27:18.254Z,26.97
2019-05-09T18:29:48.042Z,28.33
2019-05-09T18:32:48.530Z,26.73
2019-05-09T18:35:20.442Z,23.27
2019-05-09T18:37:49.943Z,23.77
2019-05-09T18:40:19.862Z,21.77
2019-05-09T18:42:49.346Z,20.37
2019-05-09T18:45:19.564Z,20.40
2019-05-09T18:47:48.865Z,18.90
2019-05-09T18:50:18.529Z,17.10
2019-05-09T18:52:47.891Z,16.30
2019-05-09T18:55:17.908Z,15.60
2019-05-09T18:57:47.304Z,15.63
2019-05-09T19:00:18.040Z,15.00
2019-05-09T19:02:47.452Z,14.37
2019-05-09T19:05:17.571Z,14.37
2019-05-09T19:07:46.999Z,15.37
2019-05-09T19:10:17.608Z,15.63
2019-05-09T19:12:47.126Z,16.53
2019-05-09T19:15:25.039Z,17.17
2019-05-09T19:18:16.497Z,17.17
2019-05-09T19:20:55.564Z,18.50
2019-05-09T19:23:26.579Z,20.87
2019-05-09T19:25:57.696Z,19.93
2019-05-09T19:28:27.381Z,22.00
2019-05-09T19:30:56.951Z,32.00
2019-05-09T19:33:26.905Z,27.97
2019-05-09T19:35:56.434Z,32.67
2019-05-09T19:38:25.946Z,29.93
2019-05-09T19:40:55.410Z,32.57
2019-05-09T19:43:24.818Z,30.00
2019-05-09T19:45:54.275Z,29.60
2019-05-09T19:48:23.823Z,30.40
2019-05-09T19:50:53.203Z,32.10
2019-05-09T19:53:22.890Z,29.80
2019-05-09T19:55:52.350Z,29.00
2019-05-09T19:58:21.965Z,30.83
2019-05-09T20:00:51.407Z,29.47
2019-05-09T20:03:21.135Z,30.80
2019-05-09T20:05:50.494Z,29.53
2019-05-09T20:08:20.015Z,29.40
2019-05-09T20:11:07.526Z,29.77
2019-05-09T20:13:55.983Z,28.80
2019-05-09T20:16:26.155Z,28.60
2019-05-09T20:18:55.602Z,28.83
2019-05-09T20:21:24.989Z,27.07
2019-05-09T20:23:54.385Z,26.17
2019-05-09T20:26:26.911Z,26.07
2019-05-09T20:28:56.406Z,25.93
2019-05-09T20:31:27.674Z,26.83
2019-05-09T20:33:57.089Z,25.80
2019-05-09T20:36:26.652Z,25.27
2019-05-09T20:38:56.659Z,25.53
2019-05-09T20:41:26.316Z,27.70
2019-05-09T20:43:55.873Z,27.40
2019-05-09T20:46:25.381Z,27.43
2019-05-09T20:48:55.095Z,27.77
2019-05-09T20:51:26.035Z,27.67
2019-05-09T20:53:55.611Z,29.00
2019-05-09T20:56:25.226Z,27.13
2019-05-09T20:58:54.784Z,28.73
2019-05-09T21:01:26.802Z,26.67
2019-05-09T21:04:00.751Z,26.77
2019-05-09T21:06:30.164Z,26.70
2019-05-09T21:08:59.777Z,27.47
2019-05-09T21:11:29.357Z,28.83
2019-05-09T21:13:59.041Z,28.77
2019-05-09T21:16:28.866Z,27.77
2019-05-09T21:18:58.540Z,27.07
2019-05-09T21:21:28.081Z,26.70
2019-05-09T21:23:57.633Z,27.00
2019-05-09T21:26:27.278Z,26.90
2019-05-09T21:28:57.017Z,26.07
2019-05-09T21:31:26.731Z,25.87
2019-05-09T21:33:56.391Z,24.50
2019-05-09T21:36:25.755Z,28.13
2019-05-09T21:38:55.072Z,26.57
2019-05-09T21:41:24.552Z,24.77
2019-05-09T21:43:53.939Z,24.67
2019-05-09T21:46:23.582Z,24.13
2019-05-09T21:48:53.074Z,22.90
2019-05-09T21:51:22.481Z,22.30
2019-05-09T21:53:51.857Z,21.63
2019-05-09T21:56:21.289Z,20.07
2019-05-09T21:58:50.593Z,19.60
2019-05-09T22:01:20.567Z,18.97
2019-05-09T22:03:50.009Z,19.40
2019-05-09T22:06:19.369Z,18.30
2019-05-09T22:08:48.831Z,17.97
2019-05-09T22:11:18.118Z,18.40
2019-05-09T22:13:47.572Z,16.80
2019-05-09T22:16:16.918Z,17.03
2019-05-09T22:18:46.309Z,16.97
2019-05-09T22:21:21.937Z,16.83
2019-05-09T22:23:56.566Z,17.20
2019-05-09T22:26:23.083Z,17.70
2019-05-09T22:28:52.523Z,21.00
2019-05-09T22:31:21.858Z,17.43
2019-05-09T22:33:51.268Z,19.40
2019-05-09T22:36:20.682Z,19.00
2019-05-09T22:38:50.091Z,21.27
2019-05-09T22:41:19.502Z,20.07
2019-05-09T22:43:48.932Z,21.37
2019-05-09T22:46:18.458Z,20.83
2019-05-09T22:48:47.942Z,22.27
2019-05-09T22:51:17.343Z,23.50
2019-05-09T22:53:46.703Z,23.17
2019-05-09T22:56:16.069Z,24.40
2019-05-09T22:58:45.650Z,25.60
2019-05-09T23:01:15.226Z,26.87
2019-05-09T23:03:44.723Z,26.57
2019-05-09T23:06:14.074Z,27.53
2019-05-09T23:08:43.507Z,24.80
2019-05-09T23:11:12.981Z,24.23
2019-05-09T23:13:54.198Z,24.57
2019-05-09T23:16:24.948Z,22.90
2019-05-09T23:18:54.768Z,22.13
2019-05-09T23:21:26.340Z,21.33
2019-05-09T23:23:58.806Z,21.43
2019-05-09T23:26:28.234Z,21.77
2019-05-09T23:28:57.867Z,20.73
2019-05-09T23:31:34.154Z,20.57
2019-05-09T23:34:03.649Z,21.90
2019-05-09T23:36:32.986Z,22.03
2019-05-09T23:39:12.493Z,20.63
2019-05-09T23:41:41.821Z,21.80
2019-05-09T23:44:11.400Z,20.07
2019-05-09T23:46:40.813Z,20.13
2019-05-09T23:49:10.184Z,19.60
2019-05-09T23:51:46.388Z,20.77
2019-05-09T23:54:50.503Z,20.43
2019-05-09T23:57:25.375Z,19.57
